createdAt,value
2023-01-12T00:00:32.158Z,100443.63
2023-01-12T00:03:35.011Z,100438.31
2023-01-12T00:06:39.018Z,100434.84
2023-01-12T00:09:44.762Z,100432.41
2023-01-12T00:12:47.467Z,100421.63
2023-01-12T00:16:04.524Z,100417.16
2023-01-12T00:19:12.666Z,100427.03
2023-01-12T00:22:18.304Z,100435.88
2023-01-12T00:25:21.476Z,100430.38
2023-01-12T00:28:24.217Z,100428.44
2023-01-12T00:31:26.950Z,100423.00
2023-01-12T00:34:32.980Z,100422.25
2023-01-12T00:37:37.226Z,100418.66
2023-01-12T00:40:39.945Z,100416.72
2023-01-12T00:44:00.156Z,100413.09
2023-01-12T00:47:03.915Z,100411.44
2023-01-12T00:50:07.276Z,100402.59
2023-01-12T00:53:13.830Z,100398.97
2023-01-12T00:56:17.167Z,100400.88
2023-01-12T00:59:24.396Z,100396.53
2023-01-12T01:02:27.937Z,100404.59
2023-01-12T01:05:31.175Z,100402.81
2023-01-12T01:08:37.777Z,100407.50
2023-01-12T01:11:41.676Z,100374.66
2023-01-12T01:14:44.450Z,100405.66
2023-01-12T01:17:47.098Z,100404.91
2023-01-12T01:20:49.783Z,100423.78
2023-01-12T01:23:54.124Z,100404.81
2023-01-12T01:26:56.815Z,100410.25
2023-01-12T01:29:59.457Z,100417.50
2023-01-12T01:33:02.209Z,100403.84
2023-01-12T01:36:05.246Z,100398.44
2023-01-12T01:39:09.314Z,100408.53
2023-01-12T01:42:27.962Z,100409.38
2023-01-12T01:45:30.848Z,100428.13
2023-01-12T01:48:37.779Z,100410.75
2023-01-12T01:51:43.055Z,100413.31
2023-01-12T01:54:51.747Z,100396.97
2023-01-12T01:57:58.417Z,100395.88
2023-01-12T02:01:20.258Z,100403.75
2023-01-12T02:04:25.949Z,100399.97
2023-01-12T02:07:28.616Z,100405.19
2023-01-12T02:10:32.827Z,100385.31
2023-01-12T02:13:53.121Z,100397.78
2023-01-12T02:17:08.174Z,100406.59
2023-01-12T02:20:48.363Z,100384.97
2023-01-12T02:24:20.507Z,100355.00
2023-01-12T02:27:51.667Z,100379.56
2023-01-12T02:31:17.773Z,100382.22
2023-01-12T02:34:35.396Z,100366.03
2023-01-12T02:37:47.535Z,100358.81
2023-01-12T02:40:59.572Z,100344.47
2023-01-12T02:44:05.395Z,100348.28
2023-01-12T02:47:17.269Z,100352.91
2023-01-12T02:50:24.948Z,100355.78
2023-01-12T02:53:34.452Z,100347.97
2023-01-12T02:56:41.010Z,100341.59
2023-01-12T02:59:46.678Z,100338.75
2023-01-12T03:02:52.093Z,100329.81
2023-01-12T03:05:56.877Z,100323.69
2023-01-12T03:08:59.684Z,100325.59
2023-01-12T03:12:07.095Z,100328.47
2023-01-12T03:15:12.466Z,100319.44
2023-01-12T03:18:28.272Z,100317.06
2023-01-12T03:21:36.461Z,100319.06
2023-01-12T03:24:43.057Z,100328.91
2023-01-12T03:27:49.970Z,100329.09
2023-01-12T03:30:57.856Z,100330.56
2023-01-12T03:34:03.007Z,100320.47
2023-01-12T03:37:12.690Z,100302.59
2023-01-12T03:40:19.949Z,100330.63
2023-01-12T03:43:29.665Z,100314.38
2023-01-12T03:46:36.768Z,100300.78
2023-01-12T03:49:45.056Z,100294.41
2023-01-12T03:52:49.522Z,100297.25
2023-01-12T03:56:00.629Z,100294.59
2023-01-12T03:59:05.080Z,100282.69
2023-01-12T04:02:08.629Z,100301.56
2023-01-12T04:05:14.130Z,100304.88
2023-01-12T04:08:17.619Z,100292.31
2023-01-12T04:11:37.802Z,100298.03
2023-01-12T04:14:41.917Z,100291.59
2023-01-12T04:17:44.625Z,100286.66
2023-01-12T04:20:48.677Z,100294.56
2023-01-12T04:23:50.407Z,100278.25
2023-01-12T04:26:53.111Z,100276.25
2023-01-12T04:29:55.961Z,100274.38
2023-01-12T04:32:59.463Z,100282.44
2023-01-12T04:36:03.504Z,100275.22
2023-01-12T04:39:08.112Z,100284.06
2023-01-12T04:42:31.000Z,100282.22
2023-01-12T04:45:36.005Z,100275.78
2023-01-12T04:48:40.704Z,100270.50
2023-01-12T04:51:45.655Z,100280.53
2023-01-12T04:54:48.316Z,100285.19
2023-01-12T04:57:51.081Z,100271.69
2023-01-12T05:00:53.753Z,100262.94
2023-01-12T05:03:57.863Z,100274.84
2023-01-12T05:07:02.541Z,100260.00
2023-01-12T05:10:24.633Z,100260.16
2023-01-12T05:13:35.461Z,100257.72
2023-01-12T05:16:38.828Z,100258.53
2023-01-12T05:19:41.735Z,100250.28
2023-01-12T05:22:45.963Z,100253.81
2023-01-12T05:25:48.631Z,100251.97
2023-01-12T05:28:52.188Z,100253.47
2023-01-12T05:31:54.949Z,100249.78
2023-01-12T05:34:57.682Z,100258.63
2023-01-12T05:38:02.158Z,100241.44
2023-01-12T05:41:07.350Z,100245.84
2023-01-12T05:44:09.691Z,100231.41
2023-01-12T05:47:12.355Z,100232.19
2023-01-12T05:50:17.293Z,100227.72
2023-01-12T05:53:23.759Z,100222.22
2023-01-12T05:56:27.924Z,100210.94
2023-01-12T05:59:30.837Z,100207.88
2023-01-12T06:02:36.735Z,100209.91
2023-01-12T06:05:39.450Z,100181.13
2023-01-12T06:08:43.530Z,100184.78
2023-01-12T06:12:03.918Z,100183.16
2023-01-12T06:15:09.736Z,100183.16
2023-01-12T06:18:12.627Z,100183.25
2023-01-12T06:21:15.625Z,100179.00
2023-01-12T06:24:19.635Z,100172.56
2023-01-12T06:27:22.409Z,100182.63
2023-01-12T06:30:25.163Z,100174.59
2023-01-12T06:33:28.870Z,100168.25
2023-01-12T06:36:33.153Z,100166.44
2023-01-12T06:39:37.195Z,100169.06
2023-01-12T06:42:42.126Z,100178.84
2023-01-12T06:45:45.378Z,100180.56
2023-01-12T06:48:48.280Z,100170.59
2023-01-12T06:51:51.512Z,100169.66
2023-01-12T06:54:56.601Z,100179.44
2023-01-12T06:58:05.783Z,100190.16
2023-01-12T07:01:12.590Z,100181.06
2023-01-12T07:04:24.167Z,100181.03
2023-01-12T07:07:26.894Z,100182.59
2023-01-12T07:10:32.608Z,100187.16
2023-01-12T07:13:35.705Z,100179.88
2023-01-12T07:16:45.597Z,100198.78
2023-01-12T07:19:48.269Z,100185.22
2023-01-12T07:22:51.148Z,100184.16
2023-01-12T07:25:57.726Z,100189.53
2023-01-12T07:29:02.719Z,100183.44
2023-01-12T07:32:07.932Z,100172.38
2023-01-12T07:35:10.835Z,100163.00
2023-01-12T07:38:13.681Z,100159.50
2023-01-12T07:41:37.762Z,100136.69
2023-01-12T07:44:42.174Z,100139.50
2023-01-12T07:47:53.315Z,100126.44
2023-01-12T07:50:56.660Z,100156.00
2023-01-12T07:53:59.369Z,100143.03
2023-01-12T07:57:06.197Z,100144.78
2023-01-12T08:00:13.482Z,100141.16
2023-01-12T08:03:23.550Z,100139.16
2023-01-12T08:06:26.241Z,100134.38
2023-01-12T08:09:29.143Z,100133.81
2023-01-12T08:12:33.492Z,100133.16
2023-01-12T08:15:42.873Z,100148.44
2023-01-12T08:18:49.132Z,100134.03
2023-01-12T08:21:58.692Z,100134.97
2023-01-12T08:25:06.247Z,100126.75
2023-01-12T08:28:13.587Z,100117.75
2023-01-12T08:34:22.436Z,100122.22
2023-01-12T08:37:26.090Z,100117.59
2023-01-12T08:40:50.268Z,100122.88
2023-01-12T08:44:03.157Z,100120.41
2023-01-12T08:47:15.343Z,100134.09
2023-01-12T08:50:18.025Z,100134.97
2023-01-12T08:53:20.649Z,100135.03
2023-01-12T08:56:23.737Z,100127.97
2023-01-12T08:59:28.623Z,100119.09
2023-01-12T09:02:31.437Z,100121.41
2023-01-12T09:05:34.225Z,100122.22
2023-01-12T09:08:36.972Z,100128.56
2023-01-12T09:11:42.944Z,100125.47
2023-01-12T09:14:49.835Z,100121.88
2023-01-12T09:17:53.961Z,100115.44
2023-01-12T09:21:01.399Z,100118.97
2023-01-12T09:24:04.486Z,100124.31
2023-01-12T09:27:07.228Z,100137.78
2023-01-12T09:30:14.477Z,100144.84
2023-01-12T09:33:19.940Z,100156.47
2023-01-12T09:36:26.384Z,100145.19
2023-01-12T09:39:29.102Z,100138.19
2023-01-12T09:42:49.409Z,100154.56
2023-01-12T09:46:10.992Z,100146.41
2023-01-12T09:49:15.892Z,100136.47
2023-01-12T09:52:23.528Z,100143.81
2023-01-12T09:55:30.403Z,100151.00
2023-01-12T09:59:09.899Z,100145.63
2023-01-12T10:02:14.921Z,100138.28
2023-01-12T10:05:39.635Z,100154.28
2023-01-12T10:08:45.192Z,100148.75
2023-01-12T10:11:57.239Z,100128.00
2023-01-12T10:15:29.903Z,100136.03
2023-01-12T10:18:40.525Z,100141.19
2023-01-12T10:21:43.310Z,100129.97
2023-01-12T10:24:47.232Z,100117.38
2023-01-12T10:27:52.169Z,100124.25
2023-01-12T10:30:59.198Z,100122.16
2023-01-12T10:34:07.023Z,100104.09
2023-01-12T10:37:13.278Z,100109.09
2023-01-12T10:40:32.924Z,100125.41
2023-01-12T10:43:43.169Z,100086.84
2023-01-12T10:47:09.881Z,100092.69
2023-01-12T10:50:27.355Z,100074.88
2023-01-12T10:53:37.072Z,100067.69
2023-01-12T10:56:43.167Z,100027.47
2023-01-12T10:59:55.656Z,100055.84
2023-01-12T11:02:58.577Z,100042.47
2023-01-12T11:06:24.589Z,100043.78
2023-01-12T11:09:29.237Z,100040.75
2023-01-12T11:12:35.823Z,100039.94
2023-01-12T11:15:40.276Z,100029.41
2023-01-12T11:18:48.952Z,100007.91
2023-01-12T11:21:57.877Z,100040.72
2023-01-12T11:25:05.373Z,100037.00
2023-01-12T11:28:17.096Z,100031.63
2023-01-12T11:31:23.760Z,100028.59
2023-01-12T11:34:30.880Z,100025.41
2023-01-12T11:37:39.368Z,100046.16
2023-01-12T11:40:44.621Z,100039.13
2023-01-12T11:43:59.012Z,100028.59
2023-01-12T11:47:07.220Z,100037.63
2023-01-12T11:50:16.882Z,100027.47
2023-01-12T11:53:26.386Z,100024.28
2023-01-12T11:56:53.033Z,100012.84
2023-01-12T12:00:07.282Z,99994.69
2023-01-12T12:03:28.200Z,99998.81
2023-01-12T12:07:03.090Z,100008.88
2023-01-12T12:10:21.147Z,99995.94
2023-01-12T12:13:35.859Z,100005.16
2023-01-12T12:16:48.438Z,99982.72
2023-01-12T12:20:05.155Z,99982.72
2023-01-12T12:23:23.960Z,99985.56
2023-01-12T12:26:33.372Z,99957.31
2023-01-12T12:29:51.500Z,99975.22
2023-01-12T12:33:14.907Z,99984.09
2023-01-12T12:36:24.242Z,99989.09
2023-01-12T12:39:46.342Z,99971.41
2023-01-12T12:43:22.975Z,99982.66
2023-01-12T12:46:34.586Z,99977.31
2023-01-12T12:49:40.503Z,99973.91
2023-01-12T12:52:44.348Z,99972.00
2023-01-12T12:55:47.569Z,99976.72
2023-01-12T12:58:53.239Z,99970.50
2023-01-12T13:01:56.614Z,99982.91
2023-01-12T13:05:05.019Z,99966.84
2023-01-12T13:08:17.947Z,99991.69
2023-01-12T13:11:22.706Z,99981.00
2023-01-12T13:14:29.034Z,99981.56
2023-01-12T13:17:44.730Z,99997.09
2023-01-12T13:20:55.687Z,100001.81
2023-01-12T13:24:27.010Z,100000.06
2023-01-12T13:27:54.175Z,99998.31
2023-01-12T13:31:03.088Z,100001.19
2023-01-12T13:34:31.601Z,99999.81
2023-01-12T13:37:45.686Z,99995.34
2023-01-12T13:40:56.031Z,99998.44
2023-01-12T13:44:01.211Z,99998.75
2023-01-12T13:47:20.059Z,99990.97
2023-01-12T13:50:28.461Z,99998.28
2023-01-12T13:53:32.974Z,100003.56
2023-01-12T13:56:36.030Z,99982.75
2023-01-12T13:59:38.780Z,99977.97
2023-01-12T14:02:43.424Z,99992.38
2023-01-12T14:05:58.242Z,99967.19
2023-01-12T14:09:14.063Z,99982.50
2023-01-12T14:12:32.050Z,99992.53
2023-01-12T14:15:56.090Z,99989.94
2023-01-12T14:19:00.308Z,99975.50
2023-01-12T14:22:06.877Z,99985.53
2023-01-12T14:25:21.480Z,99941.84
2023-01-12T14:28:25.563Z,99979.97
2023-01-12T14:31:34.685Z,99985.28
2023-01-12T14:34:38.934Z,100006.41
2023-01-12T14:37:41.752Z,99986.63
2023-01-12T14:40:50.339Z,99981.31
2023-01-12T14:44:10.412Z,99979.50
2023-01-12T14:47:25.156Z,99986.81
2023-01-12T14:50:29.192Z,99989.53
2023-01-12T14:53:39.851Z,99985.94
2023-01-12T14:56:45.144Z,99997.72
2023-01-12T14:59:49.863Z,99991.56
2023-01-12T15:02:54.210Z,99991.56
2023-01-12T15:05:59.447Z,100006.97
2023-01-12T15:09:02.308Z,99997.97
2023-01-12T15:12:43.929Z,100011.66
2023-01-12T15:16:10.916Z,99999.06
2023-01-12T15:19:33.104Z,100008.09
2023-01-12T15:22:54.636Z,100010.88
2023-01-12T15:25:57.532Z,99995.56
2023-01-12T15:29:00.349Z,99994.63
2023-01-12T15:32:06.486Z,99995.75
2023-01-12T15:35:16.348Z,100005.44
2023-01-12T15:38:20.754Z,99996.28
2023-01-12T15:41:39.890Z,100009.91
2023-01-12T15:44:43.253Z,99991.91
2023-01-12T15:47:45.927Z,99993.81
2023-01-12T15:50:49.464Z,99989.25
2023-01-12T15:53:53.582Z,99978.44
2023-01-12T15:56:59.716Z,99975.66
2023-01-12T16:00:03.209Z,99973.88
2023-01-12T16:03:06.223Z,99988.25
2023-01-12T16:06:09.024Z,99978.13
2023-01-12T16:09:13.203Z,99982.69
2023-01-12T16:12:16.137Z,99982.69
2023-01-12T16:15:20.963Z,99983.38
2023-01-12T16:18:23.671Z,99980.84
2023-01-12T16:21:28.469Z,99984.59
2023-01-12T16:24:32.762Z,99967.44
2023-01-12T16:27:37.458Z,99965.06
2023-01-12T16:30:44.949Z,99978.03
2023-01-12T16:33:48.411Z,99981.72
2023-01-12T16:36:51.571Z,99971.66
2023-01-12T16:39:57.135Z,99976.19
2023-01-12T16:42:59.871Z,99979.03
2023-01-12T16:46:03.555Z,99990.56
2023-01-12T16:49:06.455Z,99970.78
2023-01-12T16:52:13.359Z,99938.44
2023-01-12T16:55:17.503Z,99967.13
2023-01-12T16:58:20.638Z,99971.50
2023-01-12T17:01:24.826Z,99964.34
2023-01-12T17:04:27.997Z,99952.53
2023-01-12T17:07:30.983Z,99944.28
2023-01-12T17:10:36.470Z,99940.81
2023-01-12T17:13:40.256Z,99931.97
2023-01-12T17:16:43.826Z,99947.94
2023-01-12T17:19:47.355Z,99940.75
2023-01-12T17:22:50.153Z,99947.81
2023-01-12T17:25:55.794Z,99946.00
2023-01-12T17:28:58.625Z,99936.03
2023-01-12T17:32:06.708Z,99907.91
2023-01-12T17:35:10.839Z,99915.97
2023-01-12T17:38:13.681Z,99934.13
2023-01-12T17:41:32.177Z,99927.84
2023-01-12T17:44:34.851Z,99915.09
2023-01-12T17:47:37.592Z,99927.75
2023-01-12T17:50:41.074Z,99933.97
2023-01-12T17:53:44.060Z,99935.88
2023-01-12T17:56:48.164Z,99922.41
2023-01-12T17:59:51.580Z,99937.78
2023-01-12T18:02:54.619Z,99931.41
2023-01-12T18:06:04.499Z,99938.59
2023-01-12T18:09:11.175Z,99897.41
2023-01-12T18:12:16.439Z,99923.22
2023-01-12T18:15:19.879Z,99924.16
2023-01-12T18:18:22.657Z,99916.03
2023-01-12T18:21:27.632Z,99924.00
2023-01-12T18:24:30.544Z,99918.59
2023-01-12T18:27:34.600Z,99926.81
2023-01-12T18:30:37.429Z,99917.94
2023-01-12T18:33:40.450Z,99923.22
2023-01-12T18:36:43.676Z,99913.41
2023-01-12T18:39:46.802Z,99916.28
2023-01-12T18:42:49.942Z,99902.81
2023-01-12T18:45:52.611Z,99906.34
2023-01-12T18:48:54.395Z,99905.53
2023-01-12T18:52:16.016Z,99908.31
2023-01-12T18:55:19.250Z,99918.34
2023-01-12T18:58:24.580Z,99923.53
2023-01-12T19:01:27.317Z,99911.91
2023-01-12T19:04:48.236Z,99923.53
2023-01-12T19:08:05.199Z,99927.13
2023-01-12T19:11:09.533Z,99911.66
2023-01-12T19:14:30.825Z,99921.59
2023-01-12T19:17:33.821Z,99917.88
2023-01-12T19:20:39.721Z,99920.66
2023-01-12T19:24:00.056Z,99923.44
2023-01-12T19:27:20.886Z,99931.66
2023-01-12T19:30:25.018Z,99928.16
2023-01-12T19:33:27.897Z,99938.28
2023-01-12T19:36:30.573Z,99934.06
2023-01-12T19:39:59.640Z,99940.59
2023-01-12T19:43:13.691Z,99949.69
2023-01-12T19:46:18.210Z,99936.13
2023-01-12T19:49:20.942Z,99941.22
2023-01-12T19:52:23.655Z,99903.94
2023-01-12T19:55:26.690Z,99924.56
2023-01-12T19:58:29.632Z,99924.63
2023-01-12T20:01:33.887Z,99933.41
2023-01-12T20:04:36.925Z,99919.06
2023-01-12T20:07:39.789Z,99919.22
2023-01-12T20:10:42.503Z,99909.19
2023-01-12T20:13:45.166Z,99921.78
2023-01-12T20:16:49.216Z,99892.94
2023-01-12T20:19:52.136Z,99910.16
2023-01-12T20:22:55.617Z,99893.91
2023-01-12T20:25:58.960Z,99881.31
2023-01-12T20:29:01.699Z,99885.84
2023-01-12T20:32:06.081Z,99884.13
2023-01-12T20:35:10.430Z,99897.56
2023-01-12T20:38:16.250Z,99882.28
2023-01-12T20:41:19.919Z,99872.41
2023-01-12T20:44:22.917Z,99873.28
2023-01-12T20:47:27.795Z,99877.72
2023-01-12T20:50:30.556Z,99873.19
2023-01-12T20:53:33.275Z,99876.63
2023-01-12T20:56:35.964Z,99871.28
2023-01-12T20:59:38.962Z,99859.50
2023-01-12T21:02:43.100Z,99849.94
2023-01-12T21:05:47.367Z,99848.34
2023-01-12T21:08:50.074Z,99859.16
2023-01-12T21:11:53.338Z,99867.28
2023-01-12T21:14:56.184Z,99867.94
2023-01-12T21:18:00.334Z,99855.34
2023-01-12T21:21:03.465Z,99840.75
2023-01-12T21:24:06.708Z,99847.84
2023-01-12T21:27:09.443Z,99847.84
2023-01-12T21:30:12.945Z,99849.59
2023-01-12T21:33:17.801Z,99841.41
2023-01-12T21:36:20.632Z,99842.28
2023-01-12T21:39:23.370Z,99829.34
2023-01-12T21:42:43.657Z,99827.53
2023-01-12T21:45:49.107Z,99816.00
2023-01-12T21:48:53.252Z,99820.28
2023-01-12T21:51:55.909Z,99816.47
2023-01-12T21:54:58.597Z,99823.78
2023-01-12T21:58:02.912Z,99811.03
2023-01-12T22:01:10.801Z,99829.19
2023-01-12T22:04:14.925Z,99815.56
2023-01-12T22:07:18.056Z,99812.00
2023-01-12T22:10:21.032Z,99805.44
2023-01-12T22:13:23.921Z,99814.69
2023-01-12T22:16:27.361Z,99800.19
2023-01-12T22:19:31.877Z,99810.25
2023-01-12T22:22:35.373Z,99786.66
2023-01-12T22:25:38.866Z,99798.53
2023-01-12T22:28:43.718Z,99790.06
2023-01-12T22:31:46.567Z,99781.06
2023-01-12T22:34:51.153Z,99780.09
2023-01-12T22:37:54.760Z,99781.69
2023-01-12T22:40:57.837Z,99775.47
2023-01-12T22:44:02.677Z,99789.81
2023-01-12T22:47:05.400Z,99780.81
2023-01-12T22:50:11.523Z,99773.56
2023-01-12T22:53:14.862Z,99769.09
2023-01-12T22:56:20.440Z,99769.97
2023-01-12T22:59:23.259Z,99778.34
2023-01-12T23:02:44.891Z,99762.16
2023-01-12T23:05:56.230Z,99764.78
2023-01-12T23:08:59.059Z,99762.16
2023-01-12T23:12:02.080Z,99759.44
2023-01-12T23:15:05.452Z,99751.25
2023-01-12T23:18:09.222Z,99757.53
2023-01-12T23:21:15.820Z,99769.53
2023-01-12T23:24:18.713Z,99754.91
2023-01-12T23:27:21.570Z,99754.91
2023-01-12T23:30:24.401Z,99753.34
2023-01-12T23:33:27.296Z,99751.44
2023-01-12T23:36:31.909Z,99730.88
2023-01-12T23:39:34.748Z,99747.75
2023-01-12T23:42:37.709Z,99736.81
2023-01-12T23:45:40.597Z,99735.88
2023-01-12T23:48:43.825Z,99741.38
2023-01-12T23:51:48.045Z,99731.47
2023-01-12T23:54:51.874Z,99727.81
2023-01-12T23:57:54.724Z,99728.63
